sensor_id;sensor_type;location;lat;lon;timestamp;P1;durP1;ratioP1;P2;durP2;ratioP2
69678;SDS011;56915;52.046;4.854;2023-04-06T00:00:53;27.92;;;13.10;;
69678;SDS011;56915;52.046;4.854;2023-04-06T00:03:20;30.00;;;13.60;;
69678;SDS011;56915;52.046;4.854;2023-04-06T00:05:47;27.30;;;12.55;;
69678;SDS011;56915;52.046;4.854;2023-04-06T00:08:14;26.45;;;12.57;;
69678;SDS011;56915;52.046;4.854;2023-04-06T00:10:41;27.97;;;12.97;;
69678;SDS011;56915;52.046;4.854;2023-04-06T00:13:08;30.35;;;13.05;;
69678;SDS011;56915;52.046;4.854;2023-04-06T00:15:35;28.33;;;12.18;;
69678;SDS011;56915;52.046;4.854;2023-04-06T00:18:02;27.08;;;12.63;;
69678;SDS011;56915;52.046;4.854;2023-04-06T00:20:29;27.52;;;12.93;;
69678;SDS011;56915;52.046;4.854;2023-04-06T00:22:56;25.80;;;11.57;;
69678;SDS011;56915;52.046;4.854;2023-04-06T00:25:23;24.88;;;11.93;;
69678;SDS011;56915;52.046;4.854;2023-04-06T00:27:50;25.40;;;11.85;;
69678;SDS011;56915;52.046;4.854;2023-04-06T00:30:16;25.80;;;11.80;;
69678;SDS011;56915;52.046;4.854;2023-04-06T00:32:43;25.27;;;11.77;;
69678;SDS011;56915;52.046;4.854;2023-04-06T00:35:10;23.67;;;11.47;;
69678;SDS011;56915;52.046;4.854;2023-04-06T00:37:37;23.85;;;11.55;;
69678;SDS011;56915;52.046;4.854;2023-04-06T00:40:04;25.63;;;11.80;;
69678;SDS011;56915;52.046;4.854;2023-04-06T00:42:32;24.77;;;11.40;;
69678;SDS011;56915;52.046;4.854;2023-04-06T00:44:59;24.20;;;11.18;;
69678;SDS011;56915;52.046;4.854;2023-04-06T00:47:27;25.43;;;11.47;;
69678;SDS011;56915;52.046;4.854;2023-04-06T00:49:54;25.13;;;11.48;;
69678;SDS011;56915;52.046;4.854;2023-04-06T00:52:21;25.73;;;11.63;;
69678;SDS011;56915;52.046;4.854;2023-04-06T00:54:49;27.20;;;11.25;;
69678;SDS011;56915;52.046;4.854;2023-04-06T00:57:16;23.00;;;10.75;;
69678;SDS011;56915;52.046;4.854;2023-04-06T00:59:44;22.03;;;10.50;;
69678;SDS011;56915;52.046;4.854;2023-04-06T01:02:11;25.42;;;10.80;;
69678;SDS011;56915;52.046;4.854;2023-04-06T01:04:38;23.13;;;11.25;;
69678;SDS011;56915;52.046;4.854;2023-04-06T01:07:05;23.55;;;11.15;;
69678;SDS011;56915;52.046;4.854;2023-04-06T01:09:32;21.60;;;10.68;;
69678;SDS011;56915;52.046;4.854;2023-04-06T01:11:59;20.40;;;10.17;;
69678;SDS011;56915;52.046;4.854;2023-04-06T01:14:26;23.63;;;10.20;;
69678;SDS011;56915;52.046;4.854;2023-04-06T01:16:53;21.75;;;10.45;;
69678;SDS011;56915;52.046;4.854;2023-04-06T01:19:22;23.35;;;10.73;;
69678;SDS011;56915;52.046;4.854;2023-04-06T01:21:49;23.52;;;10.50;;
69678;SDS011;56915;52.046;4.854;2023-04-06T01:24:16;21.17;;;9.97;;
69678;SDS011;56915;52.046;4.854;2023-04-06T01:26:43;20.90;;;9.80;;
69678;SDS011;56915;52.046;4.854;2023-04-06T01:29:11;24.27;;;10.30;;
69678;SDS011;56915;52.046;4.854;2023-04-06T01:31:38;22.35;;;10.40;;
69678;SDS011;56915;52.046;4.854;2023-04-06T01:34:05;23.40;;;9.18;;
69678;SDS011;56915;52.046;4.854;2023-04-06T01:36:32;21.27;;;9.87;;
69678;SDS011;56915;52.046;4.854;2023-04-06T01:38:59;23.92;;;10.30;;
69678;SDS011;56915;52.046;4.854;2023-04-06T01:41:26;19.45;;;9.93;;
69678;SDS011;56915;52.046;4.854;2023-04-06T01:43:53;22.27;;;9.77;;
69678;SDS011;56915;52.046;4.854;2023-04-06T01:46:20;22.38;;;10.00;;
69678;SDS011;56915;52.046;4.854;2023-04-06T01:48:47;22.27;;;9.47;;
69678;SDS011;56915;52.046;4.854;2023-04-06T01:51:15;21.42;;;9.98;;
69678;SDS011;56915;52.046;4.854;2023-04-06T01:53:41;20.48;;;9.35;;
69678;SDS011;56915;52.046;4.854;2023-04-06T01:56:08;24.10;;;9.70;;
69678;SDS011;56915;52.046;4.854;2023-04-06T01:58:35;18.92;;;9.30;;
69678;SDS011;56915;52.046;4.854;2023-04-06T02:01:02;21.80;;;9.57;;
69678;SDS011;56915;52.046;4.854;2023-04-06T02:03:29;23.65;;;9.98;;
69678;SDS011;56915;52.046;4.854;2023-04-06T02:05:57;18.70;;;9.10;;
69678;SDS011;56915;52.046;4.854;2023-04-06T02:08:24;27.10;;;9.88;;
69678;SDS011;56915;52.046;4.854;2023-04-06T02:10:51;21.15;;;9.55;;
69678;SDS011;56915;52.046;4.854;2023-04-06T02:13:18;21.97;;;9.63;;
69678;SDS011;56915;52.046;4.854;2023-04-06T02:15:45;18.55;;;8.95;;
69678;SDS011;56915;52.046;4.854;2023-04-06T02:18:11;21.77;;;9.98;;
69678;SDS011;56915;52.046;4.854;2023-04-06T02:20:38;21.63;;;9.50;;
69678;SDS011;56915;52.046;4.854;2023-04-06T02:23:05;20.15;;;9.52;;
69678;SDS011;56915;52.046;4.854;2023-04-06T02:25:32;19.60;;;9.30;;
69678;SDS011;56915;52.046;4.854;2023-04-06T02:27:58;23.02;;;9.90;;
69678;SDS011;56915;52.046;4.854;2023-04-06T02:30:25;21.00;;;9.38;;
69678;SDS011;56915;52.046;4.854;2023-04-06T02:32:52;21.40;;;9.50;;
69678;SDS011;56915;52.046;4.854;2023-04-06T02:35:19;21.42;;;9.65;;
69678;SDS011;56915;52.046;4.854;2023-04-06T02:37:46;20.37;;;9.60;;
69678;SDS011;56915;52.046;4.854;2023-04-06T02:40:13;23.48;;;10.27;;
69678;SDS011;56915;52.046;4.854;2023-04-06T02:42:40;22.92;;;9.80;;
69678;SDS011;56915;52.046;4.854;2023-04-06T02:45:07;22.88;;;9.85;;
69678;SDS011;56915;52.046;4.854;2023-04-06T02:47:34;22.70;;;10.40;;
69678;SDS011;56915;52.046;4.854;2023-04-06T02:50:01;22.90;;;9.83;;
69678;SDS011;56915;52.046;4.854;2023-04-06T02:52:28;19.15;;;9.88;;
69678;SDS011;56915;52.046;4.854;2023-04-06T02:54:54;19.13;;;9.45;;
69678;SDS011;56915;52.046;4.854;2023-04-06T02:57:21;21.30;;;10.05;;
69678;SDS011;56915;52.046;4.854;2023-04-06T02:59:48;21.20;;;9.93;;
69678;SDS011;56915;52.046;4.854;2023-04-06T03:02:15;19.80;;;9.53;;
69678;SDS011;56915;52.046;4.854;2023-04-06T03:04:42;20.60;;;9.68;;
69678;SDS011;56915;52.046;4.854;2023-04-06T03:07:09;18.77;;;9.30;;
69678;SDS011;56915;52.046;4.854;2023-04-06T03:09:38;20.33;;;9.73;;
69678;SDS011;56915;52.046;4.854;2023-04-06T03:12:05;21.60;;;10.40;;
69678;SDS011;56915;52.046;4.854;2023-04-06T03:14:35;25.50;;;10.43;;
69678;SDS011;56915;52.046;4.854;2023-04-06T03:17:02;22.80;;;10.70;;
69678;SDS011;56915;52.046;4.854;2023-04-06T03:19:28;21.52;;;10.52;;
69678;SDS011;56915;52.046;4.854;2023-04-06T03:21:55;20.83;;;10.00;;
69678;SDS011;56915;52.046;4.854;2023-04-06T03:24:22;20.75;;;10.30;;
69678;SDS011;56915;52.046;4.854;2023-04-06T03:26:49;23.10;;;10.80;;
69678;SDS011;56915;52.046;4.854;2023-04-06T03:29:15;20.95;;;10.10;;
69678;SDS011;56915;52.046;4.854;2023-04-06T03:31:42;22.02;;;10.68;;
69678;SDS011;56915;52.046;4.854;2023-04-06T03:34:09;23.30;;;11.38;;
69678;SDS011;56915;52.046;4.854;2023-04-06T03:36:36;20.95;;;10.57;;
69678;SDS011;56915;52.046;4.854;2023-04-06T03:39:03;22.43;;;10.77;;
69678;SDS011;56915;52.046;4.854;2023-04-06T03:41:30;22.17;;;10.90;;
69678;SDS011;56915;52.046;4.854;2023-04-06T03:43:57;21.80;;;11.02;;
69678;SDS011;56915;52.046;4.854;2023-04-06T03:46:24;24.60;;;11.32;;
69678;SDS011;56915;52.046;4.854;2023-04-06T03:48:51;20.20;;;10.30;;
69678;SDS011;56915;52.046;4.854;2023-04-06T03:51:18;25.03;;;11.70;;
69678;SDS011;56915;52.046;4.854;2023-04-06T03:53:44;23.27;;;11.30;;
69678;SDS011;56915;52.046;4.854;2023-04-06T03:56:11;26.35;;;11.65;;
69678;SDS011;56915;52.046;4.854;2023-04-06T03:58:38;24.95;;;11.23;;
69678;SDS011;56915;52.046;4.854;2023-04-06T04:01:05;24.95;;;10.40;;
69678;SDS011;56915;52.046;4.854;2023-04-06T04:03:32;24.70;;;11.70;;
69678;SDS011;56915;52.046;4.854;2023-04-06T04:05:59;23.45;;;11.25;;
69678;SDS011;56915;52.046;4.854;2023-04-06T04:08:25;25.75;;;11.15;;
69678;SDS011;56915;52.046;4.854;2023-04-06T04:10:52;25.65;;;11.38;;
69678;SDS011;56915;52.046;4.854;2023-04-06T04:13:19;23.23;;;10.98;;
69678;SDS011;56915;52.046;4.854;2023-04-06T04:15:46;26.07;;;11.33;;
69678;SDS011;56915;52.046;4.854;2023-04-06T04:18:13;25.83;;;11.40;;
69678;SDS011;56915;52.046;4.854;2023-04-06T04:20:40;23.52;;;11.45;;
69678;SDS011;56915;52.046;4.854;2023-04-06T04:23:07;24.58;;;10.75;;
69678;SDS011;56915;52.046;4.854;2023-04-06T04:25:34;24.13;;;11.20;;
69678;SDS011;56915;52.046;4.854;2023-04-06T04:28:01;23.97;;;11.17;;
69678;SDS011;56915;52.046;4.854;2023-04-06T04:30:28;24.67;;;11.43;;
69678;SDS011;56915;52.046;4.854;2023-04-06T04:32:55;28.30;;;11.90;;
69678;SDS011;56915;52.046;4.854;2023-04-06T04:35:22;23.55;;;10.98;;
69678;SDS011;56915;52.046;4.854;2023-04-06T04:37:49;27.23;;;11.70;;
69678;SDS011;56915;52.046;4.854;2023-04-06T04:40:16;30.40;;;11.80;;
69678;SDS011;56915;52.046;4.854;2023-04-06T04:42:41;26.88;;;11.48;;
69678;SDS011;56915;52.046;4.854;2023-04-06T04:45:08;27.35;;;11.77;;
69678;SDS011;56915;52.046;4.854;2023-04-06T04:47:35;28.03;;;12.37;;
69678;SDS011;56915;52.046;4.854;2023-04-06T04:50:02;26.25;;;12.05;;
69678;SDS011;56915;52.046;4.854;2023-04-06T04:52:29;26.60;;;11.98;;
69678;SDS011;56915;52.046;4.854;2023-04-06T04:55:01;25.70;;;11.70;;
69678;SDS011;56915;52.046;4.854;2023-04-06T04:57:31;26.23;;;12.25;;
69678;SDS011;56915;52.046;4.854;2023-04-06T05:00:02;29.07;;;11.97;;
69678;SDS011;56915;52.046;4.854;2023-04-06T05:02:29;25.60;;;11.65;;
69678;SDS011;56915;52.046;4.854;2023-04-06T05:04:56;24.92;;;11.68;;
69678;SDS011;56915;52.046;4.854;2023-04-06T05:07:22;26.20;;;11.55;;
69678;SDS011;56915;52.046;4.854;2023-04-06T05:09:49;25.85;;;11.65;;
69678;SDS011;56915;52.046;4.854;2023-04-06T05:12:16;29.97;;;12.70;;
69678;SDS011;56915;52.046;4.854;2023-04-06T05:14:44;26.20;;;11.82;;
69678;SDS011;56915;52.046;4.854;2023-04-06T05:17:14;28.30;;;12.93;;
69678;SDS011;56915;52.046;4.854;2023-04-06T05:19:40;25.90;;;11.73;;
69678;SDS011;56915;52.046;4.854;2023-04-06T05:22:07;26.52;;;12.02;;
69678;SDS011;56915;52.046;4.854;2023-04-06T05:24:34;25.57;;;12.07;;
69678;SDS011;56915;52.046;4.854;2023-04-06T05:27:01;28.92;;;12.75;;
69678;SDS011;56915;52.046;4.854;2023-04-06T05:29:28;25.83;;;12.18;;
69678;SDS011;56915;52.046;4.854;2023-04-06T05:31:55;29.42;;;12.73;;
69678;SDS011;56915;52.046;4.854;2023-04-06T05:34:22;27.55;;;12.40;;
69678;SDS011;56915;52.046;4.854;2023-04-06T05:36:49;25.30;;;11.70;;
69678;SDS011;56915;52.046;4.854;2023-04-06T05:39:16;25.42;;;12.02;;
69678;SDS011;56915;52.046;4.854;2023-04-06T05:41:43;26.70;;;12.55;;
69678;SDS011;56915;52.046;4.854;2023-04-06T05:44:10;26.90;;;12.43;;
69678;SDS011;56915;52.046;4.854;2023-04-06T05:46:36;27.35;;;12.88;;
69678;SDS011;56915;52.046;4.854;2023-04-06T05:49:03;28.77;;;12.73;;
69678;SDS011;56915;52.046;4.854;2023-04-06T05:51:32;27.83;;;12.48;;
69678;SDS011;56915;52.046;4.854;2023-04-06T05:53:59;29.00;;;12.68;;
69678;SDS011;56915;52.046;4.854;2023-04-06T05:56:26;29.42;;;12.90;;
69678;SDS011;56915;52.046;4.854;2023-04-06T05:58:53;27.67;;;12.38;;
69678;SDS011;56915;52.046;4.854;2023-04-06T06:01:19;28.97;;;12.63;;
69678;SDS011;56915;52.046;4.854;2023-04-06T06:03:46;27.52;;;12.52;;
69678;SDS011;56915;52.046;4.854;2023-04-06T06:06:13;25.15;;;11.90;;
69678;SDS011;56915;52.046;4.854;2023-04-06T06:08:40;27.48;;;12.60;;
69678;SDS011;56915;52.046;4.854;2023-04-06T06:11:07;28.02;;;12.90;;
69678;SDS011;56915;52.046;4.854;2023-04-06T06:13:34;26.93;;;12.40;;
69678;SDS011;56915;52.046;4.854;2023-04-06T06:16:00;26.60;;;12.52;;
69678;SDS011;56915;52.046;4.854;2023-04-06T06:18:31;29.17;;;12.40;;
69678;SDS011;56915;52.046;4.854;2023-04-06T06:20:58;30.40;;;12.07;;
69678;SDS011;56915;52.046;4.854;2023-04-06T06:23:25;28.75;;;13.07;;
69678;SDS011;56915;52.046;4.854;2023-04-06T06:25:52;28.43;;;12.33;;
69678;SDS011;56915;52.046;4.854;2023-04-06T06:28:19;26.10;;;12.40;;
69678;SDS011;56915;52.046;4.854;2023-04-06T06:30:46;27.52;;;12.57;;
69678;SDS011;56915;52.046;4.854;2023-04-06T06:33:13;28.88;;;13.23;;
69678;SDS011;56915;52.046;4.854;2023-04-06T06:35:40;23.15;;;12.00;;
69678;SDS011;56915;52.046;4.854;2023-04-06T06:38:07;26.00;;;12.60;;
69678;SDS011;56915;52.046;4.854;2023-04-06T06:40:33;26.90;;;13.02;;
69678;SDS011;56915;52.046;4.854;2023-04-06T06:43:00;24.90;;;12.38;;
69678;SDS011;56915;52.046;4.854;2023-04-06T06:45:27;28.00;;;12.70;;
69678;SDS011;56915;52.046;4.854;2023-04-06T06:47:55;27.63;;;13.10;;
69678;SDS011;56915;52.046;4.854;2023-04-06T06:50:22;27.27;;;13.10;;
69678;SDS011;56915;52.046;4.854;2023-04-06T06:52:49;28.10;;;12.50;;
69678;SDS011;56915;52.046;4.854;2023-04-06T06:55:16;28.98;;;13.10;;
69678;SDS011;56915;52.046;4.854;2023-04-06T06:57:45;30.70;;;13.55;;
69678;SDS011;56915;52.046;4.854;2023-04-06T07:00:14;28.55;;;12.50;;
69678;SDS011;56915;52.046;4.854;2023-04-06T07:02:42;24.53;;;12.20;;
69678;SDS011;56915;52.046;4.854;2023-04-06T07:05:11;30.27;;;12.77;;
69678;SDS011;56915;52.046;4.854;2023-04-06T07:07:53;27.52;;;12.88;;
69678;SDS011;56915;52.046;4.854;2023-04-06T07:10:20;26.58;;;12.70;;
69678;SDS011;56915;52.046;4.854;2023-04-06T07:12:47;27.88;;;12.95;;
69678;SDS011;56915;52.046;4.854;2023-04-06T07:15:14;25.20;;;12.53;;
69678;SDS011;56915;52.046;4.854;2023-04-06T07:17:42;26.63;;;12.57;;
69678;SDS011;56915;52.046;4.854;2023-04-06T07:20:11;27.48;;;12.63;;
69678;SDS011;56915;52.046;4.854;2023-04-06T07:22:39;27.00;;;12.55;;
69678;SDS011;56915;52.046;4.854;2023-04-06T07:25:06;27.42;;;12.80;;
69678;SDS011;56915;52.046;4.854;2023-04-06T07:27:34;24.23;;;12.33;;
69678;SDS011;56915;52.046;4.854;2023-04-06T07:30:01;26.45;;;12.52;;
69678;SDS011;56915;52.046;4.854;2023-04-06T07:32:27;27.10;;;12.80;;
69678;SDS011;56915;52.046;4.854;2023-04-06T07:34:55;25.30;;;12.20;;
69678;SDS011;56915;52.046;4.854;2023-04-06T07:37:22;24.30;;;12.02;;
69678;SDS011;56915;52.046;4.854;2023-04-06T07:39:49;26.33;;;13.17;;
69678;SDS011;56915;52.046;4.854;2023-04-06T07:42:18;28.08;;;12.80;;
69678;SDS011;56915;52.046;4.854;2023-04-06T07:44:46;25.40;;;12.70;;
69678;SDS011;56915;52.046;4.854;2023-04-06T07:47:14;27.65;;;12.45;;
69678;SDS011;56915;52.046;4.854;2023-04-06T07:49:41;26.75;;;12.90;;
69678;SDS011;56915;52.046;4.854;2023-04-06T07:52:07;29.33;;;13.47;;
69678;SDS011;56915;52.046;4.854;2023-04-06T07:54:34;26.17;;;12.77;;
69678;SDS011;56915;52.046;4.854;2023-04-06T07:57:01;26.05;;;13.57;;
69678;SDS011;56915;52.046;4.854;2023-04-06T07:59:28;27.10;;;13.48;;
69678;SDS011;56915;52.046;4.854;2023-04-06T08:01:54;27.00;;;13.23;;
69678;SDS011;56915;52.046;4.854;2023-04-06T08:04:21;31.40;;;14.50;;
69678;SDS011;56915;52.046;4.854;2023-04-06T08:06:48;28.67;;;13.70;;
69678;SDS011;56915;52.046;4.854;2023-04-06T08:09:15;27.30;;;14.35;;
69678;SDS011;56915;52.046;4.854;2023-04-06T08:11:42;31.73;;;13.88;;
69678;SDS011;56915;52.046;4.854;2023-04-06T08:14:10;27.50;;;14.38;;
69678;SDS011;56915;52.046;4.854;2023-04-06T08:16:37;27.70;;;14.47;;
69678;SDS011;56915;52.046;4.854;2023-04-06T08:19:04;32.60;;;15.35;;
69678;SDS011;56915;52.046;4.854;2023-04-06T08:21:30;27.73;;;15.10;;
69678;SDS011;56915;52.046;4.854;2023-04-06T08:23:57;30.35;;;15.18;;
69678;SDS011;56915;52.046;4.854;2023-04-06T08:26:24;33.83;;;16.17;;
69678;SDS011;56915;52.046;4.854;2023-04-06T08:28:51;31.07;;;15.97;;
69678;SDS011;56915;52.046;4.854;2023-04-06T08:31:18;31.38;;;15.50;;
69678;SDS011;56915;52.046;4.854;2023-04-06T08:33:45;33.50;;;17.15;;
69678;SDS011;56915;52.046;4.854;2023-04-06T08:36:12;32.17;;;16.23;;
69678;SDS011;56915;52.046;4.854;2023-04-06T08:38:41;29.27;;;16.05;;
69678;SDS011;56915;52.046;4.854;2023-04-06T08:41:09;28.90;;;15.63;;
69678;SDS011;56915;52.046;4.854;2023-04-06T08:43:41;34.63;;;16.08;;
69678;SDS011;56915;52.046;4.854;2023-04-06T08:46:25;33.10;;;16.70;;
69678;SDS011;56915;52.046;4.854;2023-04-06T08:48:59;29.48;;;15.57;;
69678;SDS011;56915;52.046;4.854;2023-04-06T08:51:27;31.88;;;16.02;;
69678;SDS011;56915;52.046;4.854;2023-04-06T08:53:56;32.87;;;16.27;;
69678;SDS011;56915;52.046;4.854;2023-04-06T08:56:25;31.02;;;16.08;;
69678;SDS011;56915;52.046;4.854;2023-04-06T08:58:53;31.75;;;16.55;;
69678;SDS011;56915;52.046;4.854;2023-04-06T09:01:22;32.20;;;16.92;;
69678;SDS011;56915;52.046;4.854;2023-04-06T09:03:54;36.25;;;17.90;;
69678;SDS011;56915;52.046;4.854;2023-04-06T09:06:24;36.27;;;16.77;;
69678;SDS011;56915;52.046;4.854;2023-04-06T09:08:54;33.78;;;16.75;;
69678;SDS011;56915;52.046;4.854;2023-04-06T09:11:21;37.08;;;16.88;;
69678;SDS011;56915;52.046;4.854;2023-04-06T09:13:49;32.40;;;16.50;;
69678;SDS011;56915;52.046;4.854;2023-04-06T09:16:17;33.35;;;17.05;;
69678;SDS011;56915;52.046;4.854;2023-04-06T09:18:45;34.93;;;16.90;;
69678;SDS011;56915;52.046;4.854;2023-04-06T09:21:16;32.92;;;16.60;;
69678;SDS011;56915;52.046;4.854;2023-04-06T09:23:44;30.80;;;16.20;;
69678;SDS011;56915;52.046;4.854;2023-04-06T09:26:11;33.92;;;16.88;;
69678;SDS011;56915;52.046;4.854;2023-04-06T09:31:26;30.10;;;15.30;;
69678;SDS011;56915;52.046;4.854;2023-04-06T09:33:56;30.38;;;14.63;;
69678;SDS011;56915;52.046;4.854;2023-04-06T09:36:31;30.63;;;14.73;;
69678;SDS011;56915;52.046;4.854;2023-04-06T09:39:04;27.95;;;14.27;;
69678;SDS011;56915;52.046;4.854;2023-04-06T09:41:32;25.58;;;13.50;;
69678;SDS011;56915;52.046;4.854;2023-04-06T09:44:03;24.40;;;12.67;;
69678;SDS011;56915;52.046;4.854;2023-04-06T09:46:38;23.98;;;12.63;;
69678;SDS011;56915;52.046;4.854;2023-04-06T09:49:27;25.60;;;13.80;;
69678;SDS011;56915;52.046;4.854;2023-04-06T09:51:57;26.20;;;13.88;;
69678;SDS011;56915;52.046;4.854;2023-04-06T09:54:27;28.90;;;14.15;;
69678;SDS011;56915;52.046;4.854;2023-04-06T10:07:57;23.50;;;13.50;;
69678;SDS011;56915;52.046;4.854;2023-04-06T10:10:28;19.93;;;10.63;;
69678;SDS011;56915;52.046;4.854;2023-04-06T10:12:56;16.00;;;7.75;;
69678;SDS011;56915;52.046;4.854;2023-04-06T10:15:24;10.88;;;6.10;;
69678;SDS011;56915;52.046;4.854;2023-04-06T10:17:51;17.42;;;8.95;;
69678;SDS011;56915;52.046;4.854;2023-04-06T10:25:58;9.27;;;5.47;;
69678;SDS011;56915;52.046;4.854;2023-04-06T10:28:26;8.07;;;5.15;;
69678;SDS011;56915;52.046;4.854;2023-04-06T10:31:02;10.23;;;5.28;;
69678;SDS011;56915;52.046;4.854;2023-04-06T10:33:32;8.38;;;4.60;;
69678;SDS011;56915;52.046;4.854;2023-04-06T10:38:53;11.13;;;5.47;;
69678;SDS011;56915;52.046;4.854;2023-04-06T10:41:31;9.93;;;5.47;;
69678;SDS011;56915;52.046;4.854;2023-04-06T10:44:02;9.13;;;5.53;;
69678;SDS011;56915;52.046;4.854;2023-04-06T10:46:30;9.82;;;5.57;;
69678;SDS011;56915;52.046;4.854;2023-04-06T10:48:57;10.33;;;5.70;;
69678;SDS011;56915;52.046;4.854;2023-04-06T10:51:37;11.32;;;6.10;;
69678;SDS011;56915;52.046;4.854;2023-04-06T10:54:06;12.40;;;5.70;;
69678;SDS011;56915;52.046;4.854;2023-04-06T10:56:36;11.23;;;5.93;;
69678;SDS011;56915;52.046;4.854;2023-04-06T10:59:05;9.55;;;5.70;;
69678;SDS011;56915;52.046;4.854;2023-04-06T11:01:33;10.03;;;5.70;;
69678;SDS011;56915;52.046;4.854;2023-04-06T11:04:00;12.65;;;6.30;;
69678;SDS011;56915;52.046;4.854;2023-04-06T11:06:29;10.52;;;5.88;;
69678;SDS011;56915;52.046;4.854;2023-04-06T11:08:59;10.80;;;6.65;;
69678;SDS011;56915;52.046;4.854;2023-04-06T11:11:26;13.18;;;6.95;;
69678;SDS011;56915;52.046;4.854;2023-04-06T11:13:54;12.43;;;6.10;;
69678;SDS011;56915;52.046;4.854;2023-04-06T11:16:23;9.70;;;6.22;;
69678;SDS011;56915;52.046;4.854;2023-04-06T11:18:52;11.35;;;6.30;;
69678;SDS011;56915;52.046;4.854;2023-04-06T11:26:49;11.97;;;6.40;;
69678;SDS011;56915;52.046;4.854;2023-04-06T11:29:27;11.23;;;6.13;;
69678;SDS011;56915;52.046;4.854;2023-04-06T11:32:05;10.15;;;6.07;;
69678;SDS011;56915;52.046;4.854;2023-04-06T11:34:36;10.45;;;6.13;;
69678;SDS011;56915;52.046;4.854;2023-04-06T11:37:08;9.65;;;5.93;;
69678;SDS011;56915;52.046;4.854;2023-04-06T11:39:39;10.30;;;5.50;;
69678;SDS011;56915;52.046;4.854;2023-04-06T11:42:22;10.43;;;5.60;;
69678;SDS011;56915;52.046;4.854;2023-04-06T11:44:51;11.40;;;6.70;;
69678;SDS011;56915;52.046;4.854;2023-04-06T11:47:20;12.13;;;6.63;;
69678;SDS011;56915;52.046;4.854;2023-04-06T11:50:04;10.40;;;6.10;;
69678;SDS011;56915;52.046;4.854;2023-04-06T11:52:35;10.73;;;6.47;;
69678;SDS011;56915;52.046;4.854;2023-04-06T11:55:12;10.30;;;6.40;;
69678;SDS011;56915;52.046;4.854;2023-04-06T11:57:44;10.80;;;5.97;;
69678;SDS011;56915;52.046;4.854;2023-04-06T12:00:11;12.20;;;6.57;;
69678;SDS011;56915;52.046;4.854;2023-04-06T12:02:39;10.88;;;6.80;;
69678;SDS011;56915;52.046;4.854;2023-04-06T12:05:06;10.67;;;6.50;;
69678;SDS011;56915;52.046;4.854;2023-04-06T12:07:34;11.85;;;6.60;;
69678;SDS011;56915;52.046;4.854;2023-04-06T12:10:02;10.80;;;6.50;;
69678;SDS011;56915;52.046;4.854;2023-04-06T12:12:30;11.38;;;6.80;;
69678;SDS011;56915;52.046;4.854;2023-04-06T12:14:57;11.88;;;7.03;;
69678;SDS011;56915;52.046;4.854;2023-04-06T12:17:24;11.00;;;6.47;;
69678;SDS011;56915;52.046;4.854;2023-04-06T12:19:51;11.35;;;6.97;;
69678;SDS011;56915;52.046;4.854;2023-04-06T12:22:19;11.52;;;7.07;;
69678;SDS011;56915;52.046;4.854;2023-04-06T12:24:45;11.02;;;6.70;;
69678;SDS011;56915;52.046;4.854;2023-04-06T12:27:13;11.88;;;7.05;;
69678;SDS011;56915;52.046;4.854;2023-04-06T12:29:39;13.23;;;6.93;;
69678;SDS011;56915;52.046;4.854;2023-04-06T12:32:06;11.05;;;7.05;;
69678;SDS011;56915;52.046;4.854;2023-04-06T12:34:34;13.43;;;7.72;;
69678;SDS011;56915;52.046;4.854;2023-04-06T12:37:01;10.43;;;7.20;;
69678;SDS011;56915;52.046;4.854;2023-04-06T12:39:28;11.55;;;7.03;;
69678;SDS011;56915;52.046;4.854;2023-04-06T12:41:55;12.40;;;6.80;;
69678;SDS011;56915;52.046;4.854;2023-04-06T12:44:23;14.18;;;7.03;;
69678;SDS011;56915;52.046;4.854;2023-04-06T12:46:52;12.65;;;6.93;;
69678;SDS011;56915;52.046;4.854;2023-04-06T12:49:19;13.57;;;7.38;;
69678;SDS011;56915;52.046;4.854;2023-04-06T12:51:46;14.48;;;7.30;;
69678;SDS011;56915;52.046;4.854;2023-04-06T12:54:13;13.00;;;7.63;;
69678;SDS011;56915;52.046;4.854;2023-04-06T12:56:40;11.77;;;7.25;;
69678;SDS011;56915;52.046;4.854;2023-04-06T12:59:07;13.48;;;7.80;;
69678;SDS011;56915;52.046;4.854;2023-04-06T13:01:34;14.50;;;7.25;;
69678;SDS011;56915;52.046;4.854;2023-04-06T13:04:01;13.90;;;8.25;;
69678;SDS011;56915;52.046;4.854;2023-04-06T13:06:27;14.10;;;7.57;;
69678;SDS011;56915;52.046;4.854;2023-04-06T13:08:54;13.68;;;7.72;;
69678;SDS011;56915;52.046;4.854;2023-04-06T13:11:21;14.35;;;8.20;;
69678;SDS011;56915;52.046;4.854;2023-04-06T13:13:52;19.83;;;9.90;;
69678;SDS011;56915;52.046;4.854;2023-04-06T13:16:20;18.35;;;9.23;;
69678;SDS011;56915;52.046;4.854;2023-04-06T13:18:47;16.37;;;8.40;;
69678;SDS011;56915;52.046;4.854;2023-04-06T13:21:14;14.23;;;8.35;;
69678;SDS011;56915;52.046;4.854;2023-04-06T13:23:42;15.23;;;8.40;;
69678;SDS011;56915;52.046;4.854;2023-04-06T13:26:09;16.05;;;8.60;;
69678;SDS011;56915;52.046;4.854;2023-04-06T13:28:37;14.95;;;8.52;;
69678;SDS011;56915;52.046;4.854;2023-04-06T13:31:06;16.40;;;8.97;;
69678;SDS011;56915;52.046;4.854;2023-04-06T13:33:34;15.85;;;8.70;;
69678;SDS011;56915;52.046;4.854;2023-04-06T13:36:01;16.35;;;8.60;;
69678;SDS011;56915;52.046;4.854;2023-04-06T13:38:28;14.70;;;8.60;;
69678;SDS011;56915;52.046;4.854;2023-04-06T13:40:56;15.32;;;8.60;;
69678;SDS011;56915;52.046;4.854;2023-04-06T13:43:22;14.27;;;8.00;;
69678;SDS011;56915;52.046;4.854;2023-04-06T13:45:52;14.70;;;8.15;;
69678;SDS011;56915;52.046;4.854;2023-04-06T13:48:25;13.82;;;8.02;;
69678;SDS011;56915;52.046;4.854;2023-04-06T13:50:52;15.60;;;7.70;;
69678;SDS011;56915;52.046;4.854;2023-04-06T13:53:19;13.18;;;7.20;;
69678;SDS011;56915;52.046;4.854;2023-04-06T13:55:53;13.63;;;7.67;;
69678;SDS011;56915;52.046;4.854;2023-04-06T13:58:21;15.32;;;7.93;;
69678;SDS011;56915;52.046;4.854;2023-04-06T14:00:48;13.60;;;8.00;;
69678;SDS011;56915;52.046;4.854;2023-04-06T14:03:15;15.73;;;8.55;;
69678;SDS011;56915;52.046;4.854;2023-04-06T14:05:42;14.23;;;7.82;;
69678;SDS011;56915;52.046;4.854;2023-04-06T14:08:09;12.90;;;7.50;;
69678;SDS011;56915;52.046;4.854;2023-04-06T14:10:36;12.27;;;7.28;;
69678;SDS011;56915;52.046;4.854;2023-04-06T14:13:08;14.38;;;7.80;;
69678;SDS011;56915;52.046;4.854;2023-04-06T14:15:35;14.23;;;8.20;;
69678;SDS011;56915;52.046;4.854;2023-04-06T14:18:01;12.90;;;7.85;;
69678;SDS011;56915;52.046;4.854;2023-04-06T14:20:30;15.27;;;8.77;;
69678;SDS011;56915;52.046;4.854;2023-04-06T14:23:02;16.23;;;9.13;;
69678;SDS011;56915;52.046;4.854;2023-04-06T14:25:29;15.73;;;8.23;;
69678;SDS011;56915;52.046;4.854;2023-04-06T14:28:01;15.27;;;8.52;;
69678;SDS011;56915;52.046;4.854;2023-04-06T14:30:29;14.23;;;7.90;;
69678;SDS011;56915;52.046;4.854;2023-04-06T14:32:57;15.07;;;8.40;;
69678;SDS011;56915;52.046;4.854;2023-04-06T14:35:24;14.32;;;8.25;;
69678;SDS011;56915;52.046;4.854;2023-04-06T14:37:54;16.70;;;8.65;;
69678;SDS011;56915;52.046;4.854;2023-04-06T14:40:23;15.75;;;8.68;;
69678;SDS011;56915;52.046;4.854;2023-04-06T14:42:52;15.63;;;8.85;;
69678;SDS011;56915;52.046;4.854;2023-04-06T14:45:19;15.00;;;8.83;;
69678;SDS011;56915;52.046;4.854;2023-04-06T14:47:50;16.10;;;8.77;;
69678;SDS011;56915;52.046;4.854;2023-04-06T14:50:16;16.67;;;8.60;;
69678;SDS011;56915;52.046;4.854;2023-04-06T14:52:43;13.48;;;7.80;;
69678;SDS011;56915;52.046;4.854;2023-04-06T14:55:12;18.50;;;8.70;;
69678;SDS011;56915;52.046;4.854;2023-04-06T14:57:40;14.87;;;8.77;;
69678;SDS011;56915;52.046;4.854;2023-04-06T15:00:06;15.57;;;8.95;;